createdAt,value
2018-02-19T00:01:28.767Z,0.00
2018-02-19T00:02:28.764Z,0.00
2018-02-19T00:04:21.710Z,0.00
2018-02-19T00:05:21.715Z,0.00
2018-02-19T00:07:14.680Z,0.00
2018-02-19T00:08:14.675Z,0.00
2018-02-19T00:10:07.634Z,0.00
2018-02-19T00:11:07.631Z,0.00
2018-02-19T00:13:00.566Z,0.00
2018-02-19T00:14:00.580Z,0.00
2018-02-19T00:15:53.540Z,0.00
2018-02-19T00:16:53.535Z,0.00
2018-02-19T00:18:46.476Z,0.00
2018-02-19T00:19:46.490Z,0.00
2018-02-19T00:21:39.448Z,0.00
2018-02-19T00:22:39.441Z,0.00
2018-02-19T00:24:32.392Z,0.00
2018-02-19T00:25:32.396Z,0.00
2018-02-19T00:27:25.358Z,0.00
2018-02-19T00:28:25.349Z,0.00
2018-02-19T00:30:18.313Z,0.00
2018-02-19T00:31:18.305Z,0.00
2018-02-19T00:33:11.246Z,0.00
2018-02-19T00:34:11.277Z,0.00
2018-02-19T00:36:04.220Z,0.00
2018-02-19T00:37:04.216Z,0.00
2018-02-19T00:38:57.671Z,0.00
2018-02-19T00:39:57.681Z,0.00
2018-02-19T00:41:50.639Z,0.00
2018-02-19T00:42:50.633Z,0.00
2018-02-19T00:44:43.583Z,0.00
2018-02-19T00:45:43.601Z,0.00
2018-02-19T00:47:36.570Z,0.00
2018-02-19T00:48:36.566Z,0.00
2018-02-19T00:50:29.604Z,0.00
2018-02-19T00:51:29.601Z,0.00
2018-02-19T00:53:22.544Z,0.00
2018-02-19T00:54:22.620Z,0.00
2018-02-19T00:56:15.512Z,0.00
2018-02-19T00:57:15.510Z,0.00
2018-02-19T00:59:08.450Z,0.00
2018-02-19T01:00:08.564Z,0.00
2018-02-19T01:02:01.387Z,0.00
2018-02-19T01:03:01.367Z,0.00
2018-02-19T01:04:54.354Z,0.00
2018-02-19T01:05:54.368Z,0.00
2018-02-19T01:07:47.384Z,0.00
2018-02-19T01:08:47.372Z,0.00
2018-02-19T01:10:40.383Z,0.00
2018-02-19T01:11:40.380Z,0.00
2018-02-19T01:13:33.320Z,0.00
2018-02-19T01:14:33.333Z,0.00
2018-02-19T01:16:26.293Z,0.00
2018-02-19T01:17:26.294Z,0.00
2018-02-19T01:19:19.230Z,0.00
2018-02-19T01:20:19.241Z,0.00
2018-02-19T01:22:12.204Z,0.00
2018-02-19T01:23:12.197Z,0.00
2018-02-19T01:25:05.137Z,0.00
2018-02-19T01:26:05.152Z,0.00
2018-02-19T01:27:58.109Z,0.00
2018-02-19T01:28:58.106Z,0.00
2018-02-19T01:30:51.063Z,0.00
2018-02-19T01:31:51.057Z,0.00
2018-02-19T01:33:44.001Z,0.00
2018-02-19T01:34:44.016Z,0.00
2018-02-19T01:36:36.972Z,0.00
2018-02-19T01:37:36.968Z,0.00
2018-02-19T01:39:30.422Z,0.00
2018-02-19T01:40:30.435Z,0.00
2018-02-19T01:42:23.395Z,0.00
2018-02-19T01:43:23.389Z,0.00
2018-02-19T01:45:16.347Z,0.00
2018-02-19T01:46:16.343Z,0.00
2018-02-19T01:48:09.300Z,0.00
2018-02-19T01:49:09.297Z,0.00
2018-02-19T01:51:02.258Z,0.00
2018-02-19T01:52:02.254Z,0.00
2018-02-19T01:53:55.192Z,0.00
2018-02-19T01:54:55.205Z,0.00
2018-02-19T01:56:48.185Z,0.00
2018-02-19T01:57:48.159Z,0.00
2018-02-19T01:59:41.098Z,0.00
2018-02-19T02:00:41.113Z,0.00
2018-02-19T02:02:34.073Z,0.00
2018-02-19T02:03:34.069Z,0.00
2018-02-19T02:05:27.011Z,0.00
2018-02-19T02:06:27.021Z,0.00
2018-02-19T02:08:19.981Z,0.00
2018-02-19T02:09:19.993Z,0.00
2018-02-19T02:11:12.936Z,0.00
2018-02-19T02:12:12.929Z,0.00
2018-02-19T02:14:05.897Z,0.00
2018-02-19T02:15:05.887Z,0.00
2018-02-19T02:16:58.843Z,0.00
2018-02-19T02:17:58.836Z,0.00
2018-02-19T02:19:51.779Z,0.00
2018-02-19T02:20:51.791Z,0.00
2018-02-19T02:22:44.752Z,0.00
2018-02-19T02:23:44.748Z,0.00
2018-02-19T02:25:37.686Z,0.00
2018-02-19T02:26:37.701Z,0.00
2018-02-19T02:28:30.664Z,0.00
2018-02-19T02:29:30.656Z,0.00
2018-02-19T02:31:23.612Z,0.00
2018-02-19T02:32:23.611Z,0.00
2018-02-19T02:34:16.551Z,0.00
2018-02-19T02:35:16.564Z,0.00
2018-02-19T02:37:09.527Z,0.00
2018-02-19T02:38:09.517Z,0.00
2018-02-19T02:40:02.460Z,0.00
2018-02-19T02:41:02.471Z,0.00
2018-02-19T02:42:55.435Z,0.00
2018-02-19T02:43:55.428Z,0.00
2018-02-19T02:45:48.367Z,0.00
2018-02-19T02:46:48.379Z,0.00
2018-02-19T02:48:41.340Z,0.00
2018-02-19T02:49:41.334Z,0.00
2018-02-19T02:51:34.293Z,0.00
2018-02-19T02:52:34.288Z,0.00
2018-02-19T02:54:27.250Z,0.00
2018-02-19T02:55:27.258Z,0.00
2018-02-19T02:57:20.203Z,0.00
2018-02-19T02:58:20.199Z,0.00
2018-02-19T03:00:13.138Z,0.00
2018-02-19T03:01:13.152Z,0.00
2018-02-19T03:03:06.113Z,0.00
2018-02-19T03:04:06.105Z,0.00
2018-02-19T03:05:59.046Z,0.00
2018-02-19T03:06:59.061Z,0.00
2018-02-19T03:08:52.022Z,0.00
2018-02-19T03:09:52.013Z,0.00
2018-02-19T03:11:44.975Z,0.00
2018-02-19T03:12:44.968Z,0.00
2018-02-19T03:14:37.908Z,0.00
2018-02-19T03:15:37.921Z,0.00
2018-02-19T03:17:30.880Z,0.00
2018-02-19T03:18:30.875Z,0.00
2018-02-19T03:20:23.816Z,0.00
2018-02-19T03:21:23.837Z,0.00
2018-02-19T03:23:16.787Z,0.00
2018-02-19T03:24:16.783Z,0.00
2018-02-19T03:26:09.726Z,0.00
2018-02-19T03:27:09.739Z,0.00
2018-02-19T03:29:02.696Z,0.00
2018-02-19T03:30:02.696Z,0.00
2018-02-19T03:31:55.651Z,0.00
2018-02-19T03:32:55.646Z,0.00
2018-02-19T03:34:48.587Z,0.00
2018-02-19T03:35:48.602Z,0.00
2018-02-19T03:37:41.560Z,0.00
2018-02-19T03:38:41.553Z,0.00
2018-02-19T03:40:34.496Z,0.00
2018-02-19T03:41:34.513Z,0.00
2018-02-19T03:43:28.502Z,0.00
2018-02-19T03:44:28.489Z,0.00
2018-02-19T03:46:21.442Z,0.00
2018-02-19T03:47:21.441Z,0.00
2018-02-19T03:49:14.400Z,0.00
2018-02-19T03:50:14.395Z,0.00
2018-02-19T03:52:07.355Z,0.00
2018-02-19T03:53:07.351Z,0.00
2018-02-19T03:55:00.828Z,0.00
2018-02-19T03:56:00.819Z,0.00
2018-02-19T03:57:53.777Z,0.00
2018-02-19T03:58:53.769Z,0.00
2018-02-19T04:00:46.718Z,0.00
2018-02-19T04:01:46.726Z,0.00
2018-02-19T04:03:39.681Z,0.00
2018-02-19T04:04:39.678Z,0.00
2018-02-19T04:06:32.618Z,0.00
2018-02-19T04:07:32.631Z,0.00
2018-02-19T04:09:25.591Z,0.00
2018-02-19T04:10:25.602Z,0.00
2018-02-19T04:12:18.546Z,0.00
2018-02-19T04:13:18.542Z,0.00
2018-02-19T04:15:11.483Z,0.00
2018-02-19T04:16:11.546Z,0.00
2018-02-19T04:18:04.453Z,0.00
2018-02-19T04:19:04.451Z,0.00
2018-02-19T04:20:57.390Z,0.00
2018-02-19T04:21:57.404Z,0.00
2018-02-19T04:23:50.363Z,0.00
2018-02-19T04:24:50.358Z,0.00
2018-02-19T04:26:43.302Z,0.00
2018-02-19T04:27:43.310Z,0.00
2018-02-19T04:29:36.270Z,0.00
2018-02-19T04:30:36.265Z,0.00
2018-02-19T04:32:29.227Z,0.00
2018-02-19T04:33:29.223Z,0.00
2018-02-19T04:35:23.185Z,0.00
2018-02-19T04:36:23.199Z,0.00
2018-02-19T04:38:16.158Z,0.00
2018-02-19T04:39:16.154Z,0.00
2018-02-19T04:41:09.094Z,0.00
2018-02-19T04:42:09.107Z,0.00
2018-02-19T04:44:02.074Z,0.00
2018-02-19T04:45:02.066Z,0.00
2018-02-19T04:46:55.003Z,0.00
2018-02-19T04:47:55.015Z,0.00
2018-02-19T04:49:47.976Z,0.00
2018-02-19T04:50:47.971Z,0.00
2018-02-19T04:52:40.929Z,0.00
2018-02-19T04:53:40.925Z,0.00
2018-02-19T04:55:33.864Z,0.00
2018-02-19T04:56:33.876Z,0.00
2018-02-19T04:58:26.843Z,0.00
2018-02-19T04:59:26.834Z,0.00
2018-02-19T05:01:19.775Z,0.00
2018-02-19T05:02:19.787Z,0.00
2018-02-19T05:04:12.745Z,0.00
2018-02-19T05:05:12.741Z,0.00
2018-02-19T05:07:05.680Z,0.00
2018-02-19T05:08:05.697Z,0.00
2018-02-19T05:09:58.655Z,0.00
2018-02-19T05:10:58.649Z,0.00
2018-02-19T05:12:51.610Z,0.00
2018-02-19T05:13:51.610Z,0.00
2018-02-19T05:15:44.556Z,0.00
2018-02-19T05:16:44.569Z,0.00
2018-02-19T05:18:37.516Z,0.00
2018-02-19T05:19:37.509Z,0.00
2018-02-19T05:21:30.976Z,0.00
2018-02-19T05:22:30.991Z,0.00
2018-02-19T05:24:23.938Z,0.00
2018-02-19T05:25:23.932Z,0.00
2018-02-19T05:27:16.885Z,0.00
2018-02-19T05:28:16.899Z,0.00
2018-02-19T05:30:09.845Z,0.00
2018-02-19T05:31:09.849Z,0.00
2018-02-19T05:33:02.803Z,0.00
2018-02-19T05:34:02.796Z,0.00
2018-02-19T05:35:55.858Z,0.00
2018-02-19T05:36:55.856Z,0.00
2018-02-19T05:38:48.811Z,0.00
2018-02-19T05:39:48.809Z,0.00
2018-02-19T05:41:41.758Z,0.00
2018-02-19T05:42:41.798Z,0.00
2018-02-19T05:44:34.718Z,0.00
2018-02-19T05:45:34.721Z,0.00
2018-02-19T05:47:27.674Z,0.00
2018-02-19T05:48:27.671Z,0.00
2018-02-19T05:50:20.683Z,0.00
2018-02-19T05:51:20.626Z,0.00
2018-02-19T05:53:13.582Z,0.00
2018-02-19T05:54:13.580Z,0.00
2018-02-19T05:56:06.523Z,0.00
2018-02-19T05:57:06.535Z,0.00
2018-02-19T05:58:59.490Z,0.00
2018-02-19T05:59:59.506Z,0.00
2018-02-19T06:01:52.382Z,0.00
2018-02-19T06:02:52.415Z,0.00
2018-02-19T06:04:45.403Z,0.00
2018-02-19T06:05:45.392Z,0.00
2018-02-19T06:07:39.878Z,0.00
2018-02-19T06:08:39.883Z,4.00
2018-02-19T06:10:32.840Z,4.00
2018-02-19T06:11:32.837Z,4.00
2018-02-19T06:13:25.796Z,8.00
2018-02-19T06:14:25.790Z,8.00
2018-02-19T06:16:19.257Z,8.00
2018-02-19T06:17:19.261Z,12.00
2018-02-19T06:19:12.218Z,16.00
2018-02-19T06:20:12.211Z,20.00
2018-02-19T06:22:05.109Z,24.00
2018-02-19T06:23:05.121Z,28.00
2018-02-19T06:24:58.036Z,40.00
2018-02-19T06:25:58.035Z,44.00
2018-02-19T06:27:50.925Z,56.00
2018-02-19T06:28:50.938Z,60.00
2018-02-19T06:30:43.855Z,76.00
2018-02-19T06:31:43.848Z,84.00
2018-02-19T06:33:36.764Z,100.00
2018-02-19T06:34:36.761Z,112.00
2018-02-19T06:36:30.652Z,128.00
2018-02-19T06:37:30.662Z,140.00
2018-02-19T06:39:23.572Z,164.00
2018-02-19T06:40:23.567Z,180.00
2018-02-19T06:42:16.461Z,216.00
2018-02-19T06:43:16.477Z,232.00
2018-02-19T06:45:10.392Z,276.00
2018-02-19T06:46:10.387Z,300.00
2018-02-19T06:48:03.288Z,340.00
2018-02-19T06:49:03.295Z,360.00
2018-02-19T06:50:56.231Z,400.00
2018-02-19T06:51:56.203Z,424.00
2018-02-19T06:53:49.114Z,476.00
2018-02-19T06:54:49.109Z,508.00
2018-02-19T06:56:42.497Z,572.00
2018-02-19T06:57:42.509Z,608.00
2018-02-19T06:59:35.422Z,692.00
2018-02-19T07:00:35.420Z,748.00
2018-02-19T07:02:28.322Z,864.00
2018-02-19T07:03:28.327Z,916.00
2018-02-19T07:05:21.241Z,1036.00
2018-02-19T07:06:21.231Z,1104.00
2018-02-19T07:08:14.130Z,1216.00
2018-02-19T07:09:14.168Z,1276.00
2018-02-19T07:11:07.110Z,1372.00
2018-02-19T07:12:07.103Z,1412.00
2018-02-19T07:14:00.023Z,1464.00
2018-02-19T07:15:00.018Z,1472.00
2018-02-19T07:16:52.932Z,1500.00
2018-02-19T07:17:52.946Z,1536.00
2018-02-19T07:19:45.861Z,1624.00
2018-02-19T07:20:45.857Z,1696.00
2018-02-19T07:22:38.770Z,1912.00
2018-02-19T07:23:38.778Z,2084.00
2018-02-19T07:25:31.708Z,2384.00
2018-02-19T07:26:31.712Z,2528.00
2018-02-19T07:28:24.608Z,2704.00
2018-02-19T07:29:24.617Z,2756.00
2018-02-19T07:31:19.028Z,2832.00
2018-02-19T07:32:19.021Z,2880.00
2018-02-19T07:34:11.935Z,3004.00
2018-02-19T07:35:11.929Z,3068.00
2018-02-19T07:37:04.824Z,3144.00
2018-02-19T07:38:04.839Z,3172.00
2018-02-19T07:39:57.759Z,3180.00
2018-02-19T07:40:57.755Z,3144.00
2018-02-19T07:42:50.651Z,3084.00
2018-02-19T07:43:50.662Z,3076.00
2018-02-19T07:45:43.580Z,3132.00
2018-02-19T07:46:43.574Z,3212.00
2018-02-19T07:48:36.471Z,3452.00
2018-02-19T07:49:36.488Z,3556.00
2018-02-19T07:51:29.394Z,3632.00
2018-02-19T07:52:29.391Z,3680.00
2018-02-19T07:54:22.322Z,3836.00
2018-02-19T07:55:22.307Z,3924.00
2018-02-19T07:57:15.202Z,4036.00
2018-02-19T07:58:15.218Z,4076.00
2018-02-19T08:00:08.132Z,4108.00
2018-02-19T08:01:08.128Z,4100.00
2018-02-19T08:03:01.027Z,4168.00
2018-02-19T08:04:01.042Z,4204.00
2018-02-19T08:05:53.959Z,4244.00
2018-02-19T08:06:53.956Z,4248.00
2018-02-19T08:08:46.859Z,4364.00
2018-02-19T08:09:46.873Z,4468.00
2018-02-19T08:11:39.789Z,4596.00
2018-02-19T08:12:39.783Z,4612.00
2018-02-19T08:14:32.695Z,4600.00
2018-02-19T08:15:32.692Z,4568.00
2018-02-19T08:17:25.588Z,4472.00
2018-02-19T08:18:25.605Z,4392.00
2018-02-19T08:20:18.520Z,4324.00
2018-02-19T08:21:18.517Z,4324.00
2018-02-19T08:23:11.417Z,4280.00
2018-02-19T08:24:11.431Z,4232.00
2018-02-19T08:26:04.351Z,4168.00
2018-02-19T08:27:04.345Z,4156.00
2018-02-19T08:28:57.244Z,4096.00
2018-02-19T08:29:57.260Z,4076.00
2018-02-19T08:31:50.177Z,4056.00
2018-02-19T08:32:50.175Z,4060.00
2018-02-19T08:34:43.087Z,4068.00
2018-02-19T08:35:43.082Z,4100.00
2018-02-19T08:37:35.983Z,4108.00
2018-02-19T08:38:35.997Z,4088.00
2018-02-19T08:40:28.912Z,4112.00
2018-02-19T08:41:28.965Z,4188.00
2018-02-19T08:43:21.807Z,4216.00
2018-02-19T08:44:21.822Z,4192.00
2018-02-19T08:46:14.744Z,4172.00
2018-02-19T08:47:14.733Z,4176.00
2018-02-19T08:49:07.657Z,4280.00
2018-02-19T08:50:07.659Z,4380.00
2018-02-19T08:52:00.573Z,4564.00
2018-02-19T08:53:00.572Z,4612.00
2018-02-19T08:54:53.512Z,4428.00
2018-02-19T08:55:53.506Z,4312.00
2018-02-19T08:57:46.393Z,4184.00
2018-02-19T08:58:46.413Z,4212.00
2018-02-19T09:00:39.325Z,4296.00
2018-02-19T09:01:39.406Z,4328.00
2018-02-19T09:03:32.220Z,4052.00
2018-02-19T09:04:32.261Z,3860.00
2018-02-19T09:06:25.155Z,3748.00
2018-02-19T09:07:25.170Z,3756.00
2018-02-19T09:09:18.049Z,3760.00
2018-02-19T09:10:18.078Z,3768.00
2018-02-19T09:12:10.987Z,3848.00
2018-02-19T09:13:11.002Z,3864.00
2018-02-19T09:15:03.906Z,3840.00
2018-02-19T09:16:03.910Z,3744.00
2018-02-19T09:17:56.804Z,3804.00
2018-02-19T09:18:56.820Z,3980.00
2018-02-19T09:20:49.739Z,4468.00
2018-02-19T09:21:49.734Z,4656.00
2018-02-19T09:23:42.640Z,4924.00
2018-02-19T09:24:42.651Z,5072.00
2018-02-19T09:26:35.606Z,5384.00
2018-02-19T09:27:35.586Z,5656.00
2018-02-19T09:29:40.157Z,6308.00
2018-02-19T09:30:40.171Z,6548.00
2018-02-19T09:32:33.097Z,6860.00
2018-02-19T09:33:33.094Z,7028.00
2018-02-19T09:35:26.016Z,7164.00
2018-02-19T09:36:26.005Z,7128.00
2018-02-19T09:38:18.905Z,7172.00
2018-02-19T09:39:18.920Z,7256.00
2018-02-19T09:41:11.845Z,7444.00
2018-02-19T09:42:12.430Z,7524.00
2018-02-19T09:44:04.735Z,7636.00
2018-02-19T09:45:04.752Z,7628.00
2018-02-19T09:46:57.671Z,7712.00
2018-02-19T09:47:57.672Z,7836.00
2018-02-19T09:49:50.571Z,8048.00
2018-02-19T09:50:50.591Z,8048.00
2018-02-19T09:52:43.515Z,7996.00
2018-02-19T09:53:43.511Z,7944.00
2018-02-19T09:55:36.431Z,7740.00
2018-02-19T09:56:36.441Z,7652.00
2018-02-19T09:58:29.348Z,7636.00
2018-02-19T09:59:29.347Z,7684.00
2018-02-19T10:01:22.260Z,7880.00
2018-02-19T10:02:22.261Z,7980.00
2018-02-19T10:04:15.162Z,8032.00
2018-02-19T10:05:15.193Z,8020.00
2018-02-19T10:07:08.100Z,7980.00
2018-02-19T10:08:08.098Z,7948.00
2018-02-19T10:10:01.002Z,7880.00
2018-02-19T10:11:01.033Z,7964.00
2018-02-19T10:12:53.942Z,8196.00
2018-02-19T10:13:53.941Z,8248.00
2018-02-19T10:15:46.864Z,8212.00
2018-02-19T10:16:46.864Z,8044.00
2018-02-19T10:18:39.784Z,7656.00
2018-02-19T10:19:39.800Z,7400.00
2018-02-19T10:21:32.737Z,6796.00
2018-02-19T10:22:32.736Z,6484.00
2018-02-19T10:24:25.641Z,6240.00
2018-02-19T10:25:25.654Z,6228.00
2018-02-19T10:27:18.577Z,6396.00
2018-02-19T10:28:18.574Z,6516.00
2018-02-19T10:30:11.475Z,6700.00
2018-02-19T10:31:11.493Z,6768.00
2018-02-19T10:33:04.913Z,6984.00
2018-02-19T10:34:04.927Z,7148.00
2018-02-19T10:35:57.826Z,7336.00
2018-02-19T10:36:57.834Z,7356.00
2018-02-19T10:38:50.725Z,7180.00
2018-02-19T10:39:50.741Z,7048.00
2018-02-19T10:41:43.667Z,6824.00
2018-02-19T10:42:43.678Z,6776.00
2018-02-19T10:44:36.562Z,6840.00
2018-02-19T10:45:36.586Z,6812.00
2018-02-19T10:47:29.506Z,6592.00
2018-02-19T10:48:29.531Z,6444.00
2018-02-19T10:50:22.411Z,6212.00
2018-02-19T10:51:22.427Z,6024.00
2018-02-19T10:53:15.348Z,5736.00
2018-02-19T10:54:15.346Z,5640.00
2018-02-19T10:56:08.282Z,5660.00
2018-02-19T10:57:08.283Z,5688.00
2018-02-19T10:59:01.205Z,5872.00
2018-02-19T11:00:01.264Z,5992.00
2018-02-19T11:01:54.156Z,6272.00
2018-02-19T11:02:54.145Z,6372.00
2018-02-19T11:04:47.042Z,6240.00
2018-02-19T11:05:47.070Z,6120.00
2018-02-19T11:07:39.980Z,5904.00
2018-02-19T11:08:39.979Z,5760.00
2018-02-19T11:10:32.878Z,5528.00
2018-02-19T11:11:32.895Z,5492.00
2018-02-19T11:13:25.858Z,5460.00
2018-02-19T11:14:25.813Z,5464.00
2018-02-19T11:16:18.740Z,5512.00
2018-02-19T11:17:18.741Z,5528.00
2018-02-19T11:19:11.638Z,5496.00
2018-02-19T11:20:11.656Z,5504.00
2018-02-19T11:22:04.579Z,5540.00
2018-02-19T11:23:04.577Z,5556.00
2018-02-19T11:24:57.480Z,5532.00
2018-02-19T11:25:57.496Z,5492.00
2018-02-19T11:27:50.420Z,5360.00
2018-02-19T11:28:50.420Z,5288.00
2018-02-19T11:30:43.834Z,5324.00
2018-02-19T11:31:43.854Z,5340.00
2018-02-19T11:33:36.771Z,5408.00
2018-02-19T11:34:36.771Z,5428.00
2018-02-19T11:36:30.204Z,5336.00
2018-02-19T11:37:30.204Z,5376.00
2018-02-19T11:39:23.102Z,5456.00
2018-02-19T11:40:23.120Z,5340.00
2018-02-19T11:42:16.044Z,5176.00
2018-02-19T11:43:16.044Z,5156.00
2018-02-19T11:45:08.954Z,5076.00
2018-02-19T11:46:08.974Z,4952.00
2018-02-19T11:48:01.885Z,4628.00
2018-02-19T11:49:01.900Z,4516.00
2018-02-19T11:50:54.783Z,4420.00
2018-02-19T11:51:54.799Z,4316.00
2018-02-19T11:53:47.717Z,4208.00
2018-02-19T11:54:47.740Z,4108.00
2018-02-19T11:56:40.633Z,4064.00
2018-02-19T11:57:40.634Z,4108.00
2018-02-19T11:59:33.537Z,4124.00
2018-02-19T12:00:33.560Z,4236.00
2018-02-19T12:02:26.472Z,4264.00
2018-02-19T12:03:26.480Z,4284.00
2018-02-19T12:05:19.376Z,4264.00
2018-02-19T12:06:19.394Z,4232.00
2018-02-19T12:08:12.314Z,4248.00
2018-02-19T12:09:12.327Z,4248.00
2018-02-19T12:11:05.212Z,4400.00
2018-02-19T12:12:05.236Z,4536.00
2018-02-19T12:13:58.151Z,4600.00
2018-02-19T12:14:58.220Z,4636.00
2018-02-19T12:16:51.075Z,4792.00
2018-02-19T12:17:51.071Z,4848.00
2018-02-19T12:19:43.971Z,4904.00
2018-02-19T12:20:43.984Z,4900.00
2018-02-19T12:22:36.927Z,4700.00
2018-02-19T12:23:36.927Z,4592.00
2018-02-19T12:25:29.840Z,4448.00
2018-02-19T12:26:29.860Z,4408.00
2018-02-19T12:28:22.781Z,4356.00
2018-02-19T12:29:22.793Z,4360.00
2018-02-19T12:31:15.799Z,4464.00
2018-02-19T12:32:15.823Z,4408.00
2018-02-19T12:34:08.757Z,4380.00
2018-02-19T12:35:08.757Z,4372.00
2018-02-19T12:37:03.265Z,4412.00
2018-02-19T12:38:03.246Z,4488.00
2018-02-19T12:39:56.197Z,4676.00
2018-02-19T12:40:56.201Z,4836.00
2018-02-19T12:42:49.159Z,5236.00
2018-02-19T12:43:49.157Z,5424.00
2018-02-19T12:45:42.056Z,5712.00
2018-02-19T12:46:42.072Z,5900.00
2018-02-19T12:48:35.066Z,6196.00
2018-02-19T12:49:35.067Z,6392.00
2018-02-19T12:51:28.525Z,6656.00
2018-02-19T12:52:28.534Z,6764.00
2018-02-19T12:54:23.023Z,6928.00
2018-02-19T12:55:23.021Z,6892.00
2018-02-19T12:57:15.976Z,6784.00
2018-02-19T12:58:15.977Z,6828.00
2018-02-19T13:00:09.440Z,6864.00
2018-02-19T13:01:09.458Z,6904.00
2018-02-19T13:03:02.499Z,6872.00
2018-02-19T13:04:02.503Z,6836.00
2018-02-19T13:05:55.437Z,6780.00
2018-02-19T13:06:55.452Z,6732.00
2018-02-19T13:08:48.959Z,6752.00
2018-02-19T13:09:48.922Z,6684.00
2018-02-19T13:11:41.856Z,6640.00
2018-02-19T13:12:41.875Z,6648.00
2018-02-19T13:14:34.827Z,6612.00
2018-02-19T13:15:34.827Z,6580.00
2018-02-19T13:17:27.785Z,6436.00
2018-02-19T13:18:27.781Z,6368.00
2018-02-19T13:20:21.230Z,6320.00
2018-02-19T13:21:21.265Z,6304.00
2018-02-19T13:23:15.714Z,6452.00
2018-02-19T13:24:15.720Z,6488.00
2018-02-19T13:26:10.210Z,6524.00
2018-02-19T13:27:10.228Z,6440.00
2018-02-19T13:29:03.696Z,6408.00
2018-02-19T13:30:03.695Z,6340.00
2018-02-19T13:31:58.191Z,6212.00
2018-02-19T13:32:58.184Z,6156.00
2018-02-19T13:34:51.141Z,5896.00
2018-02-19T13:35:51.137Z,5820.00
2018-02-19T13:37:44.604Z,5768.00
2018-02-19T13:38:44.605Z,5724.00
2018-02-19T13:40:37.544Z,5592.00
2018-02-19T13:41:37.559Z,5548.00
2018-02-19T13:43:30.539Z,5440.00
2018-02-19T13:44:30.514Z,5328.00
2018-02-19T13:46:23.451Z,5104.00
2018-02-19T13:47:23.473Z,5012.00
2018-02-19T13:49:16.423Z,4848.00
2018-02-19T13:50:16.421Z,4756.00
2018-02-19T13:52:09.360Z,4620.00
2018-02-19T13:53:09.377Z,4560.00
2018-02-19T13:55:02.926Z,4420.00
2018-02-19T13:56:02.939Z,4312.00
2018-02-19T13:57:55.800Z,4144.00
2018-02-19T13:58:55.794Z,4072.00
2018-02-19T14:00:50.217Z,3924.00
2018-02-19T14:01:50.237Z,3872.00
2018-02-19T14:03:43.148Z,3756.00
2018-02-19T14:04:43.158Z,3688.00
2018-02-19T14:06:36.048Z,3624.00
2018-02-19T14:07:36.065Z,3560.00
2018-02-19T14:09:29.984Z,3424.00
2018-02-19T14:10:29.985Z,3356.00
2018-02-19T14:12:22.886Z,3224.00
2018-02-19T14:13:22.906Z,3156.00
2018-02-19T14:15:15.831Z,3028.00
2018-02-19T14:16:15.823Z,2972.00
2018-02-19T14:18:10.348Z,2888.00
2018-02-19T14:19:10.238Z,2864.00
2018-02-19T14:21:03.143Z,2828.00
2018-02-19T14:22:03.166Z,2812.00
2018-02-19T14:23:56.099Z,2772.00
2018-02-19T14:24:56.085Z,2744.00
2018-02-19T14:26:49.008Z,2692.00
2018-02-19T14:27:49.001Z,2684.00
2018-02-19T14:29:41.927Z,2724.00
2018-02-19T14:30:41.922Z,2756.00
2018-02-19T14:32:34.829Z,2828.00
2018-02-19T14:33:34.850Z,2840.00
2018-02-19T14:35:27.765Z,2864.00
2018-02-19T14:36:27.760Z,2896.00
2018-02-19T14:38:20.683Z,2992.00
2018-02-19T14:39:20.682Z,3024.00
2018-02-19T14:41:13.583Z,3000.00
2018-02-19T14:42:13.596Z,2952.00
2018-02-19T14:44:07.057Z,2828.00
2018-02-19T14:45:07.054Z,2804.00
2018-02-19T14:47:01.472Z,2800.00
2018-02-19T14:48:01.472Z,2804.00
2018-02-19T14:49:54.391Z,2836.00
2018-02-19T14:50:54.387Z,2868.00
2018-02-19T14:52:47.290Z,2892.00
2018-02-19T14:53:47.304Z,2900.00
2018-02-19T14:55:40.229Z,2872.00
2018-02-19T14:56:40.232Z,2848.00
2018-02-19T14:58:33.146Z,2804.00
2018-02-19T14:59:33.140Z,2788.00
2018-02-19T15:01:27.535Z,2780.00
2018-02-19T15:02:27.625Z,2784.00
2018-02-19T15:04:20.469Z,2804.00
2018-02-19T15:05:20.508Z,2816.00
2018-02-19T15:07:13.392Z,2800.00
2018-02-19T15:08:13.408Z,2760.00
2018-02-19T15:10:06.338Z,2660.00
2018-02-19T15:11:06.339Z,2636.00
2018-02-19T15:12:59.260Z,2600.00
2018-02-19T15:13:59.277Z,2588.00
2018-02-19T15:15:52.198Z,2548.00
2018-02-19T15:16:52.212Z,2516.00
2018-02-19T15:18:45.117Z,2420.00
2018-02-19T15:19:45.134Z,2392.00
2018-02-19T15:21:38.023Z,2348.00
2018-02-19T15:22:38.038Z,2320.00
2018-02-19T15:24:30.960Z,2268.00
2018-02-19T15:25:30.974Z,2264.00
2018-02-19T15:27:23.856Z,2264.00
2018-02-19T15:28:23.874Z,2260.00
2018-02-19T15:30:16.795Z,2236.00
2018-02-19T15:31:16.824Z,2220.00
2018-02-19T15:33:09.699Z,2188.00
2018-02-19T15:34:09.716Z,2164.00
2018-02-19T15:36:02.639Z,2104.00
2018-02-19T15:37:02.633Z,2084.00
2018-02-19T15:38:55.556Z,2064.00
2018-02-19T15:39:55.552Z,2048.00
2018-02-19T15:41:48.455Z,2004.00
2018-02-19T15:42:48.466Z,1984.00
2018-02-19T15:44:41.388Z,1932.00
2018-02-19T15:45:41.385Z,1904.00
2018-02-19T15:47:34.289Z,1840.00
2018-02-19T15:48:34.308Z,1800.00
2018-02-19T15:50:27.719Z,1728.00
2018-02-19T15:51:27.717Z,1692.00
2018-02-19T15:53:20.704Z,1628.00
2018-02-19T15:54:20.719Z,1592.00
2018-02-19T15:56:14.191Z,1520.00
2018-02-19T15:57:14.190Z,1488.00
2018-02-19T15:59:08.685Z,1432.00
2018-02-19T16:00:08.712Z,1404.00
2018-02-19T16:02:11.602Z,1336.00
2018-02-19T16:03:11.605Z,1300.00
2018-02-19T16:05:06.035Z,1236.00
2018-02-19T16:06:06.024Z,1200.00
2018-02-19T16:07:58.920Z,1140.00
2018-02-19T16:08:58.944Z,1112.00
2018-02-19T16:10:51.851Z,1060.00
2018-02-19T16:11:51.847Z,1028.00
2018-02-19T16:13:44.743Z,972.00
2018-02-19T16:14:44.794Z,944.00
2018-02-19T16:16:37.685Z,884.00
2018-02-19T16:17:37.674Z,848.00
2018-02-19T16:19:30.590Z,780.00
2018-02-19T16:20:30.590Z,744.00
2018-02-19T16:22:23.985Z,680.00
2018-02-19T16:23:24.007Z,652.00
2018-02-19T16:25:16.927Z,604.00
2018-02-19T16:26:16.922Z,576.00
2018-02-19T16:28:09.825Z,524.00
2018-02-19T16:29:09.827Z,492.00
2018-02-19T16:31:02.742Z,444.00
2018-02-19T16:32:02.738Z,420.00
2018-02-19T16:33:55.642Z,376.00
2018-02-19T16:34:55.653Z,356.00
2018-02-19T16:36:48.771Z,312.00
2018-02-19T16:37:48.784Z,292.00
2018-02-19T16:39:41.689Z,256.00
2018-02-19T16:40:41.695Z,240.00
2018-02-19T16:42:34.648Z,208.00
2018-02-19T16:43:34.603Z,196.00
2018-02-19T16:45:27.512Z,172.00
2018-02-19T16:46:27.533Z,160.00
2018-02-19T16:48:20.415Z,140.00
2018-02-19T16:49:20.442Z,128.00
2018-02-19T16:51:14.335Z,108.00
2018-02-19T16:52:14.337Z,96.00
2018-02-19T16:54:07.232Z,84.00
2018-02-19T16:55:07.250Z,72.00
2018-02-19T16:57:00.164Z,60.00
2018-02-19T16:58:00.200Z,52.00
2018-02-19T16:59:53.070Z,40.00
2018-02-19T17:00:53.202Z,36.00
2018-02-19T17:02:45.973Z,28.00
2018-02-19T17:03:45.986Z,24.00
2018-02-19T17:05:38.909Z,16.00
2018-02-19T17:06:38.916Z,16.00
2018-02-19T17:08:31.996Z,12.00
2018-02-19T17:09:32.008Z,8.00
2018-02-19T17:11:24.939Z,8.00
2018-02-19T17:12:24.904Z,4.00
2018-02-19T17:14:17.828Z,4.00
2018-02-19T17:15:17.820Z,0.00
2018-02-19T17:17:10.749Z,4.00
2018-02-19T17:18:10.732Z,0.00
2018-02-19T17:20:03.654Z,0.00
2018-02-19T17:21:03.645Z,0.00
2018-02-19T17:22:56.558Z,0.00
2018-02-19T17:23:56.556Z,0.00
2018-02-19T17:25:49.469Z,0.00
2018-02-19T17:26:49.467Z,0.00
2018-02-19T17:28:42.361Z,0.00
2018-02-19T17:29:42.378Z,0.00
2018-02-19T17:31:35.290Z,0.00
2018-02-19T17:32:35.285Z,0.00
2018-02-19T17:34:28.183Z,0.00
2018-02-19T17:35:28.198Z,0.00
2018-02-19T17:37:21.113Z,0.00
2018-02-19T17:38:21.112Z,0.00
2018-02-19T17:40:14.027Z,0.00
2018-02-19T17:41:14.020Z,0.00
2018-02-19T17:43:06.920Z,0.00
2018-02-19T17:44:06.931Z,0.00
2018-02-19T17:45:59.905Z,0.00
2018-02-19T17:46:59.838Z,0.00
2018-02-19T17:48:52.742Z,0.00
2018-02-19T17:49:52.750Z,0.00
2018-02-19T17:51:45.715Z,0.00
2018-02-19T17:52:45.656Z,0.00
2018-02-19T17:54:38.548Z,0.00
2018-02-19T17:55:38.573Z,0.00
2018-02-19T17:57:31.697Z,0.00
2018-02-19T17:58:31.694Z,0.00
2018-02-19T18:00:25.123Z,0.00
2018-02-19T18:01:25.154Z,0.00
2018-02-19T18:03:17.994Z,0.00
2018-02-19T18:04:18.084Z,0.00
2018-02-19T18:06:11.090Z,0.00
2018-02-19T18:07:11.101Z,0.00
2018-02-19T18:09:04.209Z,0.00
2018-02-19T18:10:04.222Z,0.00
2018-02-19T18:11:57.256Z,0.00